createdAt,value
2022-09-02T00:00:30.647Z,1.20
2022-09-02T00:01:44.549Z,1.33
2022-09-02T00:02:49.883Z,1.00
2022-09-02T00:03:55.959Z,1.10
2022-09-02T00:04:58.022Z,1.30
2022-09-02T00:06:01.195Z,1.42
2022-09-02T00:07:03.454Z,1.20
2022-09-02T00:08:06.532Z,1.05
2022-09-02T00:09:10.446Z,1.20
2022-09-02T00:10:12.690Z,1.10
2022-09-02T00:11:17.622Z,1.00
2022-09-02T00:12:19.877Z,1.33
2022-09-02T00:13:38.426Z,1.17
2022-09-02T00:14:40.482Z,1.42
2022-09-02T00:15:43.959Z,1.33
2022-09-02T00:16:51.235Z,1.17
2022-09-02T00:17:54.015Z,1.02
2022-09-02T00:18:58.110Z,1.00
2022-09-02T00:20:00.177Z,1.20
2022-09-02T00:21:02.753Z,1.25
2022-09-02T00:22:04.694Z,1.33
2022-09-02T00:23:08.683Z,1.00
2022-09-02T00:24:10.869Z,1.20
2022-09-02T00:25:12.895Z,1.23
2022-09-02T00:26:15.280Z,1.40
2022-09-02T00:27:17.416Z,1.25
2022-09-02T00:28:19.594Z,1.20
2022-09-02T00:29:22.244Z,1.17
2022-09-02T00:30:24.502Z,1.20
2022-09-02T00:31:27.719Z,1.50
2022-09-02T00:32:29.644Z,1.25
2022-09-02T00:33:32.000Z,1.30
2022-09-02T00:34:34.156Z,1.48
2022-09-02T00:35:36.826Z,1.25
2022-09-02T00:36:40.408Z,1.45
2022-09-02T00:37:42.369Z,1.85
2022-09-02T00:38:44.426Z,1.40
2022-09-02T00:39:46.486Z,1.20
2022-09-02T00:40:50.226Z,1.25
2022-09-02T00:41:54.060Z,1.45
2022-09-02T00:43:09.772Z,1.38
2022-09-02T00:44:19.098Z,1.50
2022-09-02T00:45:23.036Z,1.10
2022-09-02T00:46:27.925Z,1.30
2022-09-02T00:47:40.628Z,1.17
2022-09-02T00:48:55.479Z,1.13
2022-09-02T00:50:00.406Z,1.20
2022-09-02T00:51:04.375Z,1.55
2022-09-02T00:52:17.593Z,1.42
2022-09-02T00:53:20.376Z,1.42
2022-09-02T00:54:24.296Z,1.48
2022-09-02T00:55:45.068Z,1.33
2022-09-02T00:56:48.031Z,1.45
2022-09-02T00:58:01.780Z,1.65
2022-09-02T00:59:04.240Z,1.20
2022-09-02T01:00:12.422Z,1.58
2022-09-02T01:01:14.907Z,1.35
2022-09-02T01:02:17.373Z,1.35
2022-09-02T01:03:21.746Z,1.10
2022-09-02T01:04:23.721Z,1.20
2022-09-02T01:05:28.843Z,1.60
2022-09-02T01:06:33.052Z,1.50
2022-09-02T01:07:38.597Z,1.10
2022-09-02T01:08:42.292Z,1.58
2022-09-02T01:09:46.485Z,1.50
2022-09-02T01:10:48.648Z,1.38
2022-09-02T01:11:55.613Z,1.40
2022-09-02T01:13:00.357Z,1.10
2022-09-02T01:14:03.436Z,1.95
2022-09-02T01:15:07.535Z,1.33
2022-09-02T01:16:15.467Z,1.33
2022-09-02T01:17:19.512Z,1.30
2022-09-02T01:18:25.350Z,1.73
2022-09-02T01:19:33.563Z,1.70
2022-09-02T01:20:35.819Z,1.45
2022-09-02T01:21:37.774Z,1.10
2022-09-02T01:22:42.189Z,1.27
2022-09-02T01:23:44.436Z,1.30
2022-09-02T01:24:46.291Z,1.40
2022-09-02T01:25:48.545Z,1.10
2022-09-02T01:26:53.671Z,1.45
2022-09-02T01:28:07.196Z,1.38
2022-09-02T01:29:09.159Z,1.40
2022-09-02T01:30:16.425Z,1.45
2022-09-02T01:31:23.857Z,1.30
2022-09-02T01:32:29.167Z,1.25
2022-09-02T01:36:27.247Z,1.63
2022-09-02T01:37:29.275Z,1.25
2022-09-02T01:39:58.688Z,1.58
2022-09-02T01:41:01.150Z,1.70
2022-09-02T01:42:03.424Z,1.42
2022-09-02T01:43:17.764Z,1.30
2022-09-02T01:44:19.813Z,1.40
2022-09-02T01:45:22.272Z,1.60
2022-09-02T01:46:24.269Z,1.55
2022-09-02T01:47:27.016Z,1.55
2022-09-02T01:49:07.872Z,1.40
2022-09-02T01:50:10.432Z,1.40
2022-09-02T01:51:17.714Z,1.45
2022-09-02T01:52:23.036Z,1.33
2022-09-02T01:53:25.090Z,1.60
2022-09-02T01:54:26.938Z,1.80
2022-09-02T01:55:28.912Z,1.20
2022-09-02T01:56:30.948Z,1.48
2022-09-02T01:57:33.823Z,1.67
2022-09-02T01:58:35.988Z,1.60
2022-09-02T01:59:38.054Z,1.10
2022-09-02T02:00:40.255Z,1.73
2022-09-02T02:01:42.280Z,1.15
2022-09-02T02:02:45.737Z,1.40
2022-09-02T02:03:47.690Z,1.60
2022-09-02T02:04:50.775Z,1.10
2022-09-02T02:05:52.827Z,1.30
2022-09-02T02:06:55.081Z,1.48
2022-09-02T02:07:57.049Z,1.60
2022-09-02T02:08:59.201Z,1.33
2022-09-02T02:10:01.358Z,1.35
2022-09-02T02:11:03.515Z,1.77
2022-09-02T02:12:06.278Z,1.40
2022-09-02T02:13:08.233Z,1.60
2022-09-02T02:14:10.288Z,1.55
2022-09-02T02:15:15.930Z,1.27
2022-09-02T02:16:18.100Z,1.88
2022-09-02T02:17:20.047Z,1.60
2022-09-02T02:18:22.094Z,1.42
2022-09-02T02:19:26.483Z,1.60
2022-09-02T02:20:28.359Z,1.20
2022-09-02T02:21:30.817Z,1.55
2022-09-02T02:22:32.872Z,1.40
2022-09-02T02:23:34.928Z,1.40
2022-09-02T02:24:37.393Z,1.40
2022-09-02T02:25:39.552Z,1.33
2022-09-02T02:26:42.630Z,1.52
2022-09-02T02:27:45.913Z,1.83
2022-09-02T02:28:47.970Z,1.75
2022-09-02T02:29:50.229Z,1.80
2022-09-02T02:30:56.235Z,1.80
2022-09-02T02:31:58.436Z,1.50
2022-09-02T02:33:00.491Z,1.40
2022-09-02T02:34:03.366Z,1.50
2022-09-02T02:35:06.749Z,1.67
2022-09-02T02:36:09.319Z,1.40
2022-09-02T02:37:13.318Z,1.85
2022-09-02T02:38:16.090Z,1.52
2022-09-02T02:39:18.147Z,1.67
2022-09-02T02:40:22.909Z,1.88
2022-09-02T02:41:25.943Z,1.55
2022-09-02T02:42:27.996Z,1.30
2022-09-02T02:43:30.054Z,1.58
2022-09-02T02:44:32.209Z,1.65
2022-09-02T02:45:34.163Z,1.60
2022-09-02T02:46:36.568Z,1.70
2022-09-02T02:47:41.139Z,1.58
2022-09-02T02:49:03.683Z,1.60
2022-09-02T02:50:08.697Z,1.52
2022-09-02T02:51:10.745Z,1.65
2022-09-02T02:52:13.838Z,1.40
2022-09-02T02:53:17.786Z,1.85
2022-09-02T02:54:20.406Z,1.70
2022-09-02T02:55:24.172Z,2.05
2022-09-02T02:56:26.358Z,1.67
2022-09-02T02:57:28.412Z,1.33
2022-09-02T02:58:30.877Z,1.65
2022-09-02T02:59:33.037Z,1.70
2022-09-02T03:00:38.059Z,1.45
2022-09-02T03:01:40.310Z,1.48
2022-09-02T03:02:43.250Z,1.50
2022-09-02T03:03:45.661Z,1.75
2022-09-02T03:04:47.614Z,1.50
2022-09-02T03:05:51.408Z,1.60
2022-09-02T03:06:53.468Z,1.52
2022-09-02T03:07:55.620Z,1.30
2022-09-02T03:08:58.085Z,1.45
2022-09-02T03:10:00.169Z,1.33
2022-09-02T03:11:03.114Z,1.60
2022-09-02T03:12:05.684Z,1.50
2022-09-02T03:13:09.890Z,1.38
2022-09-02T03:14:11.945Z,1.45
2022-09-02T03:15:17.376Z,1.50
2022-09-02T03:16:20.195Z,1.20
2022-09-02T03:17:23.023Z,1.65
2022-09-02T03:18:25.080Z,1.63
2022-09-02T03:19:27.954Z,1.55
2022-09-02T03:20:31.360Z,1.35
2022-09-02T03:21:39.281Z,1.45
2022-09-02T03:22:42.621Z,1.50
2022-09-02T03:23:45.495Z,1.30
2022-09-02T03:24:47.821Z,1.48
2022-09-02T03:25:50.527Z,1.90
2022-09-02T03:26:52.785Z,1.55
2022-09-02T03:27:55.658Z,1.40
2022-09-02T03:28:58.022Z,1.42
2022-09-02T03:30:00.395Z,1.40
2022-09-02T03:31:02.681Z,1.50
2022-09-02T03:32:05.213Z,1.33
2022-09-02T03:33:10.030Z,1.30
2022-09-02T03:34:12.292Z,1.52
2022-09-02T03:35:19.569Z,1.38
2022-09-02T03:36:27.158Z,1.50
2022-09-02T03:37:29.722Z,1.40
2022-09-02T03:38:31.777Z,1.75
2022-09-02T03:39:34.036Z,1.23
2022-09-02T03:40:37.162Z,1.75
2022-09-02T03:41:41.493Z,1.58
2022-09-02T03:42:43.241Z,1.90
2022-09-02T03:43:49.170Z,1.60
2022-09-02T03:44:50.779Z,1.73
2022-09-02T03:45:52.677Z,1.50
2022-09-02T03:46:54.322Z,1.35
2022-09-02T03:47:56.540Z,1.55
2022-09-02T03:48:58.454Z,1.50
2022-09-02T03:50:00.173Z,1.50
2022-09-02T03:51:02.898Z,1.63
2022-09-02T03:52:04.582Z,1.85
2022-09-02T03:53:07.382Z,1.80
2022-09-02T03:54:10.238Z,1.75
2022-09-02T03:55:12.538Z,1.45
2022-09-02T03:56:15.966Z,1.88
2022-09-02T03:57:17.660Z,1.50
2022-09-02T03:58:21.047Z,1.83
2022-09-02T03:59:22.701Z,1.45
2022-09-02T04:00:28.896Z,1.52
2022-09-02T04:01:30.872Z,2.22
2022-09-02T04:02:37.064Z,1.40
2022-09-02T04:03:38.735Z,1.63
2022-09-02T04:04:40.788Z,2.13
2022-09-02T04:05:47.087Z,2.03
2022-09-02T04:06:48.780Z,2.25
2022-09-02T04:07:52.608Z,1.80
2022-09-02T04:08:54.348Z,2.38
2022-09-02T04:09:56.363Z,1.95
2022-09-02T04:10:57.965Z,1.95
2022-09-02T04:11:59.986Z,2.00
2022-09-02T04:13:01.590Z,1.80
2022-09-02T04:14:03.366Z,1.80
2022-09-02T04:15:07.000Z,1.92
2022-09-02T04:16:10.953Z,1.70
2022-09-02T04:17:12.606Z,1.42
2022-09-02T04:18:16.119Z,1.73
2022-09-02T04:19:17.755Z,1.60
2022-09-02T04:20:19.515Z,1.40
2022-09-02T04:21:21.835Z,2.10
2022-09-02T04:22:23.778Z,1.83
2022-09-02T04:23:25.389Z,2.00
2022-09-02T04:24:27.000Z,1.73
2022-09-02T04:25:28.948Z,1.70
2022-09-02T04:26:30.550Z,1.90
2022-09-02T04:27:32.240Z,1.95
2022-09-02T04:28:34.138Z,2.03
2022-09-02T04:29:35.826Z,2.00
2022-09-02T04:30:41.964Z,1.80
2022-09-02T04:31:43.673Z,2.05
2022-09-02T04:32:46.060Z,1.83
2022-09-02T04:33:47.849Z,1.67
2022-09-02T04:34:49.979Z,2.15
2022-09-02T04:35:52.187Z,2.05
2022-09-02T04:36:53.775Z,1.90
2022-09-02T04:37:55.568Z,2.30
2022-09-02T04:38:58.564Z,1.95
2022-09-02T04:40:00.484Z,2.17
2022-09-02T04:41:14.278Z,2.00
2022-09-02T04:42:15.909Z,2.33
2022-09-02T04:43:18.047Z,1.90
2022-09-02T04:44:19.765Z,2.15
2022-09-02T04:45:21.754Z,1.90
2022-09-02T04:46:34.370Z,1.90
2022-09-02T04:47:36.737Z,1.70
2022-09-02T04:48:39.366Z,2.50
2022-09-02T04:49:42.014Z,1.85
2022-09-02T04:50:43.634Z,2.25
2022-09-02T04:51:45.349Z,2.05
2022-09-02T04:52:47.021Z,2.00
2022-09-02T04:53:50.294Z,2.50
2022-09-02T04:54:52.150Z,1.80
2022-09-02T04:55:57.938Z,2.17
2022-09-02T04:57:00.173Z,2.05
2022-09-02T04:58:01.884Z,2.20
2022-09-02T04:59:03.782Z,2.00
2022-09-02T05:00:07.807Z,2.45
2022-09-02T05:01:12.121Z,1.90
2022-09-02T05:02:13.987Z,2.10
2022-09-02T05:03:15.735Z,2.40
2022-09-02T05:04:17.423Z,1.88
2022-09-02T05:05:19.193Z,2.22
2022-09-02T05:06:26.231Z,2.20
2022-09-02T05:07:27.916Z,2.35
2022-09-02T05:08:36.180Z,1.73
2022-09-02T05:09:38.619Z,1.50
2022-09-02T05:10:41.021Z,1.77
2022-09-02T05:11:42.773Z,1.80
2022-09-02T05:12:44.400Z,2.17
2022-09-02T05:13:57.028Z,2.00
2022-09-02T05:15:01.079Z,2.30
2022-09-02T05:16:03.155Z,2.45
2022-09-02T05:17:07.656Z,2.05
2022-09-02T05:18:10.277Z,1.90
2022-09-02T05:19:13.715Z,1.98
2022-09-02T05:20:16.678Z,8.95
2022-09-02T05:21:19.278Z,2.33
2022-09-02T05:22:20.942Z,4.88
2022-09-02T05:23:22.682Z,3.67
2022-09-02T05:24:26.781Z,2.90
2022-09-02T05:25:28.711Z,2.28
2022-09-02T05:26:30.340Z,2.17
2022-09-02T05:27:33.157Z,2.50
2022-09-02T05:28:35.125Z,2.10
2022-09-02T05:29:37.738Z,2.17
2022-09-02T05:30:41.108Z,2.00
2022-09-02T05:31:46.635Z,1.80
2022-09-02T05:32:49.934Z,1.90
2022-09-02T05:33:53.365Z,1.92
2022-09-02T05:34:55.982Z,1.90
2022-09-02T05:35:57.670Z,2.10
2022-09-02T05:36:59.307Z,2.67
2022-09-02T05:38:01.358Z,2.05
2022-09-02T05:39:05.075Z,2.47
2022-09-02T05:40:07.746Z,2.40
2022-09-02T05:41:17.751Z,2.35
2022-09-02T05:42:20.504Z,2.05
2022-09-02T05:43:22.920Z,2.15
2022-09-02T05:44:24.791Z,2.22
2022-09-02T05:45:26.434Z,2.13
2022-09-02T05:46:29.438Z,2.40
2022-09-02T05:47:31.106Z,2.13
2022-09-02T05:48:51.498Z,2.10
2022-09-02T05:49:53.123Z,2.40
2022-09-02T05:50:57.876Z,2.42
2022-09-02T05:52:01.676Z,2.20
2022-09-02T05:53:03.292Z,2.15
2022-09-02T05:54:04.990Z,2.55
2022-09-02T05:55:07.125Z,2.40
2022-09-02T05:56:08.791Z,2.35
2022-09-02T05:57:13.755Z,2.03
2022-09-02T05:58:15.910Z,2.13
2022-09-02T05:59:18.916Z,2.58
2022-09-02T06:00:20.785Z,2.70
2022-09-02T06:01:22.883Z,2.30
2022-09-02T06:02:25.920Z,2.10
2022-09-02T06:03:27.654Z,2.50
2022-09-02T06:04:29.778Z,2.33
2022-09-02T06:05:32.430Z,2.10
2022-09-02T06:06:35.129Z,2.83
2022-09-02T06:07:36.863Z,2.05
2022-09-02T06:08:38.933Z,2.00
2022-09-02T06:09:41.100Z,2.22
2022-09-02T06:10:43.346Z,2.65
2022-09-02T06:11:49.240Z,2.38
2022-09-02T06:12:50.924Z,2.20
2022-09-02T06:13:55.342Z,2.10
2022-09-02T06:14:56.933Z,2.25
2022-09-02T06:15:58.584Z,2.03
2022-09-02T06:17:00.429Z,2.33
2022-09-02T06:18:02.057Z,2.38
2022-09-02T06:19:04.883Z,2.20
2022-09-02T06:20:07.104Z,2.40
2022-09-02T06:21:08.866Z,2.38
2022-09-02T06:22:11.539Z,2.50
2022-09-02T06:23:14.896Z,2.90
2022-09-02T06:24:17.123Z,2.33
2022-09-02T06:25:20.850Z,1.95
2022-09-02T06:26:22.920Z,2.50
2022-09-02T06:27:24.536Z,2.35
2022-09-02T06:28:26.511Z,2.60
2022-09-02T06:29:28.561Z,3.05
2022-09-02T06:30:30.219Z,2.30
2022-09-02T06:31:34.675Z,2.10
2022-09-02T06:32:36.495Z,2.60
2022-09-02T06:33:38.175Z,2.40
2022-09-02T06:34:39.927Z,2.85
2022-09-02T06:35:43.925Z,2.60
2022-09-02T06:36:47.719Z,2.45
2022-09-02T06:37:50.632Z,2.35
2022-09-02T06:38:53.427Z,2.30
2022-09-02T06:39:56.006Z,2.30
2022-09-02T06:40:58.928Z,2.70
2022-09-02T06:42:00.952Z,2.38
2022-09-02T06:43:02.604Z,3.35
2022-09-02T06:44:07.054Z,2.50
2022-09-02T06:45:09.436Z,2.80
2022-09-02T06:46:22.815Z,3.13
2022-09-02T06:47:24.475Z,3.10
2022-09-02T06:48:26.095Z,2.88
2022-09-02T06:49:28.972Z,3.30
2022-09-02T06:50:30.706Z,2.65
2022-09-02T06:51:35.792Z,2.70
2022-09-02T06:52:37.862Z,2.70
2022-09-02T06:53:39.904Z,2.80
2022-09-02T06:54:41.635Z,3.47
2022-09-02T06:55:44.780Z,2.65
2022-09-02T06:56:49.680Z,3.45
2022-09-02T06:57:51.529Z,3.35
2022-09-02T06:58:53.740Z,2.60
2022-09-02T07:00:01.864Z,3.15
2022-09-02T07:01:04.412Z,2.92
2022-09-02T07:02:06.290Z,2.63
2022-09-02T07:03:28.669Z,2.78
2022-09-02T07:04:49.460Z,2.80
2022-09-02T07:06:10.515Z,2.58
2022-09-02T07:07:12.314Z,3.35
2022-09-02T07:08:13.959Z,3.40
2022-09-02T07:09:31.580Z,2.90
2022-09-02T07:10:37.537Z,2.90
2022-09-02T07:11:40.404Z,2.75
2022-09-02T07:12:44.330Z,3.08
2022-09-02T07:13:46.547Z,2.60
2022-09-02T07:14:48.242Z,2.63
2022-09-02T07:15:49.920Z,2.92
2022-09-02T07:16:52.903Z,2.92
2022-09-02T07:17:54.539Z,2.20
2022-09-02T07:18:57.727Z,3.50
2022-09-02T07:20:00.309Z,2.55
2022-09-02T07:21:02.444Z,2.92
2022-09-02T07:22:07.346Z,2.97
2022-09-02T07:23:08.969Z,2.20
2022-09-02T07:24:12.977Z,2.53
2022-09-02T07:25:15.086Z,2.60
2022-09-02T07:26:17.911Z,2.50
2022-09-02T07:27:20.414Z,3.25
2022-09-02T07:28:23.111Z,2.50
2022-09-02T07:29:25.497Z,2.75
2022-09-02T07:30:27.181Z,2.63
2022-09-02T07:31:29.491Z,2.25
2022-09-02T07:32:31.480Z,3.35
2022-09-02T07:33:33.066Z,3.28
2022-09-02T07:34:34.756Z,2.72
2022-09-02T07:35:37.244Z,3.08
2022-09-02T07:36:39.346Z,2.53
2022-09-02T07:37:41.076Z,2.40
2022-09-02T07:38:43.083Z,2.55
2022-09-02T07:39:45.243Z,2.72
2022-09-02T07:40:48.951Z,2.40
2022-09-02T07:41:51.859Z,2.38
2022-09-02T07:42:54.436Z,3.00
2022-09-02T07:43:59.533Z,2.90
2022-09-02T07:45:01.553Z,2.50
2022-09-02T07:46:05.461Z,2.47
2022-09-02T07:47:07.224Z,2.30
2022-09-02T07:48:10.076Z,2.50
2022-09-02T07:49:13.697Z,2.40
2022-09-02T07:50:20.120Z,2.78
2022-09-02T07:51:23.283Z,2.28
2022-09-02T07:52:29.946Z,2.10
2022-09-02T07:53:32.813Z,2.50
2022-09-02T07:54:41.221Z,2.72
2022-09-02T07:55:44.097Z,2.20
2022-09-02T07:56:46.564Z,2.65
2022-09-02T07:57:49.337Z,2.70
2022-09-02T07:58:56.316Z,2.00
2022-09-02T07:59:58.873Z,2.45
2022-09-02T08:01:02.141Z,2.08
2022-09-02T08:02:04.597Z,2.17
2022-09-02T08:04:10.878Z,2.30
2022-09-02T08:05:13.990Z,2.47
2022-09-02T08:06:15.750Z,2.60
2022-09-02T08:07:23.977Z,2.20
2022-09-02T08:08:26.748Z,2.50
2022-09-02T08:09:28.370Z,2.35
2022-09-02T08:10:31.032Z,2.70
2022-09-02T08:11:38.968Z,3.27
2022-09-02T08:12:41.364Z,2.30
2022-09-02T08:13:43.006Z,2.50
2022-09-02T08:14:44.709Z,2.60
2022-09-02T08:15:46.767Z,3.10
2022-09-02T08:16:54.539Z,2.40
2022-09-02T08:17:57.614Z,2.70
2022-09-02T08:18:59.287Z,2.30
2022-09-02T08:20:01.078Z,2.63
2022-09-02T08:21:02.804Z,3.40
2022-09-02T08:22:08.299Z,2.60
2022-09-02T08:23:18.530Z,2.67
2022-09-02T08:24:31.570Z,2.17
2022-09-02T08:25:36.671Z,2.73
2022-09-02T08:26:38.377Z,2.93
2022-09-02T08:27:40.314Z,2.40
2022-09-02T08:28:41.944Z,2.40
2022-09-02T08:29:43.622Z,2.27
2022-09-02T08:30:45.942Z,2.00
2022-09-02T08:31:48.683Z,2.10
2022-09-02T08:32:52.499Z,2.50
2022-09-02T08:33:54.372Z,2.20
2022-09-02T08:34:55.980Z,2.33
2022-09-02T08:36:09.330Z,2.10
2022-09-02T08:37:11.156Z,2.00
2022-09-02T08:38:12.780Z,2.20
2022-09-02T08:39:14.546Z,2.17
2022-09-02T08:40:20.132Z,1.90
2022-09-02T08:41:31.447Z,2.80
2022-09-02T08:42:38.151Z,2.10
2022-09-02T08:43:43.248Z,2.07
2022-09-02T08:44:47.318Z,1.57
2022-09-02T08:45:54.237Z,2.73
2022-09-02T08:47:01.203Z,1.80
2022-09-02T08:48:10.657Z,2.10
2022-09-02T08:49:28.712Z,2.10
2022-09-02T08:50:31.469Z,1.67
2022-09-02T08:51:41.087Z,1.73
2022-09-02T08:52:56.206Z,2.23
2022-09-02T08:54:06.276Z,1.57
2022-09-02T08:55:14.765Z,1.87
2022-09-02T08:56:20.260Z,1.70
2022-09-02T08:57:26.655Z,1.70
2022-09-02T08:58:37.167Z,1.93
2022-09-02T09:00:55.520Z,1.90
2022-09-02T09:02:21.632Z,1.50
2022-09-02T09:04:01.599Z,1.40
2022-09-02T09:05:44.136Z,2.03
2022-09-02T09:07:20.726Z,2.07
2022-09-02T09:08:40.990Z,1.37
2022-09-02T09:10:00.372Z,1.70
2022-09-02T09:11:16.888Z,1.67
2022-09-02T09:12:36.326Z,1.67
2022-09-02T09:13:58.716Z,1.40
2022-09-02T09:15:23.410Z,1.47
2022-09-02T09:16:44.552Z,1.50
2022-09-02T09:17:58.079Z,1.40
2022-09-02T09:19:30.386Z,1.70
2022-09-02T09:20:34.394Z,2.13
2022-09-02T09:21:36.352Z,1.73
2022-09-02T09:22:40.091Z,1.60
2022-09-02T09:23:41.786Z,1.60
2022-09-02T09:24:46.075Z,2.27
2022-09-02T09:25:49.171Z,1.60
2022-09-02T09:26:50.882Z,1.40
2022-09-02T09:27:52.525Z,1.83
2022-09-02T09:28:56.104Z,1.60
2022-09-02T09:29:57.689Z,1.50
2022-09-02T09:31:01.265Z,1.67
2022-09-02T09:32:04.397Z,1.67
2022-09-02T09:33:06.282Z,1.30
2022-09-02T09:34:11.513Z,1.20
2022-09-02T09:35:15.940Z,1.30
2022-09-02T09:36:17.609Z,1.50
2022-09-02T09:37:38.008Z,1.50
2022-09-02T09:38:39.623Z,1.70
2022-09-02T09:39:41.256Z,1.63
2022-09-02T09:40:43.640Z,1.53
2022-09-02T09:41:47.450Z,1.70
2022-09-02T09:42:51.863Z,1.40
2022-09-02T09:43:54.728Z,1.60
2022-09-02T09:44:56.375Z,1.80
2022-09-02T09:45:58.056Z,1.33
2022-09-02T09:47:06.176Z,1.43
2022-09-02T09:48:17.669Z,1.33
2022-09-02T09:49:26.467Z,2.00
2022-09-02T09:50:28.429Z,1.20
2022-09-02T09:51:30.095Z,1.47
2022-09-02T09:52:51.379Z,1.90
2022-09-02T09:54:13.399Z,1.50
2022-09-02T09:55:25.529Z,1.40
2022-09-02T09:56:32.235Z,1.37
2022-09-02T09:57:45.621Z,1.20
2022-09-02T09:58:49.186Z,1.60
2022-09-02T09:59:55.954Z,1.73
2022-09-02T10:01:00.737Z,1.63
2022-09-02T10:02:02.886Z,1.17
2022-09-02T10:03:08.658Z,1.50
2022-09-02T10:04:46.820Z,1.30
2022-09-02T10:05:52.908Z,1.40
2022-09-02T10:06:56.030Z,1.70
2022-09-02T10:08:00.848Z,1.50
2022-09-02T10:09:24.538Z,1.40
2022-09-02T10:10:30.911Z,1.50
2022-09-02T10:11:38.690Z,1.47
2022-09-02T10:12:40.311Z,1.40
2022-09-02T10:13:42.960Z,1.07
2022-09-02T10:14:47.545Z,1.37
2022-09-02T10:16:22.480Z,1.27
2022-09-02T10:17:45.175Z,1.27
2022-09-02T10:18:53.777Z,1.20
2022-09-02T10:20:14.233Z,1.50
2022-09-02T10:21:31.121Z,1.23
2022-09-02T10:22:58.457Z,1.33
2022-09-02T10:24:38.054Z,1.27
2022-09-02T10:26:02.871Z,1.23
2022-09-02T10:27:09.479Z,1.63
2022-09-02T10:28:26.371Z,1.50
2022-09-02T10:29:51.333Z,1.30
2022-09-02T10:31:12.099Z,1.50
2022-09-02T10:32:32.440Z,1.40
2022-09-02T10:33:37.259Z,1.27
2022-09-02T10:34:53.986Z,1.37
2022-09-02T10:36:03.516Z,1.27
2022-09-02T10:37:25.536Z,1.40
2022-09-02T10:38:30.619Z,1.30
2022-09-02T10:40:01.929Z,1.50
2022-09-02T10:41:23.665Z,1.30
2022-09-02T10:42:39.743Z,1.30
2022-09-02T10:44:18.972Z,1.50
2022-09-02T10:45:37.361Z,1.10
2022-09-02T10:47:02.073Z,1.10
2022-09-02T10:48:24.084Z,1.50
2022-09-02T10:50:17.239Z,1.30
2022-09-02T10:51:44.091Z,1.17
2022-09-02T10:53:02.789Z,1.43
2022-09-02T10:54:40.581Z,1.10
2022-09-02T10:55:52.367Z,1.17
2022-09-02T10:57:01.590Z,1.67
2022-09-02T10:58:24.612Z,1.20
2022-09-02T10:59:35.046Z,1.50
2022-09-02T11:00:40.687Z,1.47
2022-09-02T11:01:59.655Z,1.10
2022-09-02T11:03:18.193Z,1.30
2022-09-02T11:04:59.252Z,1.30
2022-09-02T11:07:01.556Z,1.47
2022-09-02T11:08:14.593Z,1.57
2022-09-02T11:09:39.214Z,1.47
2022-09-02T11:10:50.281Z,1.20
2022-09-02T11:12:00.534Z,1.30
2022-09-02T11:13:11.819Z,1.40
2022-09-02T11:14:54.821Z,1.37
2022-09-02T11:16:15.333Z,1.80
2022-09-02T11:17:21.573Z,1.90
2022-09-02T11:18:43.702Z,1.57
2022-09-02T11:19:58.029Z,1.40
2022-09-02T11:21:03.684Z,1.30
2022-09-02T11:22:40.339Z,1.10
2022-09-02T11:23:51.503Z,1.77
2022-09-02T11:25:37.903Z,1.40
2022-09-02T11:27:01.560Z,1.57
2022-09-02T11:28:44.587Z,1.47
2022-09-02T11:30:06.084Z,1.60
2022-09-02T11:31:17.271Z,1.20
2022-09-02T11:34:12.977Z,1.10
2022-09-02T11:35:29.378Z,1.40
2022-09-02T11:36:38.602Z,1.13
2022-09-02T11:37:50.989Z,1.43
2022-09-02T11:39:09.419Z,1.40
2022-09-02T11:40:34.185Z,1.23
2022-09-02T11:42:01.074Z,1.40
2022-09-02T11:43:30.947Z,1.03
2022-09-02T11:44:58.424Z,1.50
2022-09-02T11:46:38.030Z,1.40
2022-09-02T11:48:07.959Z,1.27
2022-09-02T11:49:37.454Z,1.47
2022-09-02T11:51:17.009Z,1.30
2022-09-02T11:52:25.398Z,1.50
2022-09-02T11:53:42.615Z,1.40
2022-09-02T11:54:47.731Z,1.30
2022-09-02T11:55:53.992Z,1.23
2022-09-02T11:57:01.973Z,1.23
2022-09-02T11:58:04.246Z,1.30
2022-09-02T11:59:44.483Z,1.50
2022-09-02T12:01:00.895Z,1.20
2022-09-02T12:02:08.875Z,1.03
2022-09-02T12:03:40.896Z,1.30
2022-09-02T12:04:59.407Z,1.30
2022-09-02T12:06:15.522Z,1.10
2022-09-02T12:07:17.215Z,1.50
2022-09-02T12:08:27.582Z,1.10
2022-09-02T12:10:52.167Z,1.50
2022-09-02T12:11:55.267Z,1.70
2022-09-02T12:12:57.623Z,1.50
2022-09-02T12:14:01.783Z,1.57
2022-09-02T12:15:06.719Z,1.37
2022-09-02T12:16:15.730Z,1.07
2022-09-02T12:18:05.451Z,1.30
2022-09-02T12:19:10.780Z,1.40
2022-09-02T12:20:45.994Z,1.10
2022-09-02T12:22:16.580Z,1.20
2022-09-02T12:23:55.786Z,1.30
2022-09-02T12:25:02.935Z,1.10
2022-09-02T12:26:11.012Z,1.23
2022-09-02T12:27:26.012Z,1.23
2022-09-02T12:28:31.243Z,1.40
2022-09-02T12:29:34.090Z,1.63
2022-09-02T12:31:08.750Z,1.40
2022-09-02T12:32:10.653Z,1.20
2022-09-02T12:33:13.380Z,1.50
2022-09-02T12:34:20.886Z,1.20
2022-09-02T12:35:32.614Z,1.17
2022-09-02T12:36:37.352Z,1.37
2022-09-02T12:37:54.218Z,1.50
2022-09-02T12:39:24.879Z,1.40
2022-09-02T12:40:32.509Z,1.30
2022-09-02T12:41:42.797Z,1.67
2022-09-02T12:42:46.687Z,1.47
2022-09-02T12:43:57.677Z,1.43
2022-09-02T12:45:13.779Z,1.07
2022-09-02T12:46:43.498Z,1.23
2022-09-02T12:48:30.303Z,1.40
2022-09-02T12:50:07.657Z,1.30
2022-09-02T12:51:09.521Z,1.83
2022-09-02T12:52:32.501Z,1.10
2022-09-02T12:53:49.046Z,1.33
2022-09-02T12:54:51.491Z,1.20
2022-09-02T12:56:04.007Z,1.40
2022-09-02T12:57:07.738Z,1.07
2022-09-02T12:58:15.723Z,1.60
2022-09-02T12:59:39.681Z,1.60
2022-09-02T13:00:47.288Z,1.43
2022-09-02T13:03:31.232Z,1.20
2022-09-02T13:05:02.262Z,1.07
2022-09-02T13:06:26.837Z,1.40
2022-09-02T13:08:02.470Z,1.30
2022-09-02T13:10:45.099Z,1.30
2022-09-02T13:12:02.713Z,1.23
2022-09-02T13:13:23.390Z,1.50
2022-09-02T13:14:34.976Z,1.30
2022-09-02T13:16:18.494Z,1.17
2022-09-02T13:17:45.358Z,1.30
2022-09-02T13:19:16.573Z,1.40
2022-09-02T13:20:37.086Z,1.87
2022-09-02T13:21:44.974Z,1.20
2022-09-02T13:23:05.565Z,1.20
2022-09-02T13:24:16.531Z,1.20
2022-09-02T13:25:34.089Z,1.50
2022-09-02T13:28:55.169Z,1.40
2022-09-02T13:30:06.625Z,1.07
2022-09-02T13:31:25.903Z,0.93
2022-09-02T13:32:31.056Z,1.30
2022-09-02T13:33:33.603Z,1.23
2022-09-02T13:34:48.457Z,1.40
2022-09-02T13:35:56.237Z,1.30
2022-09-02T13:36:58.399Z,1.03
2022-09-02T13:39:25.042Z,1.33
2022-09-02T13:40:35.757Z,1.33
2022-09-02T13:41:37.829Z,1.33
2022-09-02T13:42:47.077Z,1.20
2022-09-02T13:44:10.125Z,1.60
2022-09-02T13:45:21.415Z,1.50
2022-09-02T13:46:23.724Z,1.70
2022-09-02T13:47:26.116Z,1.63
2022-09-02T13:48:45.784Z,1.40
2022-09-02T13:50:37.093Z,1.40
2022-09-02T13:51:46.113Z,1.20
2022-09-02T13:54:37.948Z,1.40
2022-09-02T13:55:54.027Z,1.53
2022-09-02T13:56:57.625Z,1.60
2022-09-02T13:58:10.102Z,1.60
2022-09-02T13:59:13.705Z,1.50
2022-09-02T14:00:42.151Z,1.40
2022-09-02T14:01:50.385Z,1.30
2022-09-02T14:03:01.326Z,1.23
2022-09-02T14:04:15.597Z,1.00
2022-09-02T14:05:23.181Z,1.20
2022-09-02T14:06:36.868Z,1.50
2022-09-02T14:07:45.790Z,1.30
2022-09-02T14:08:48.449Z,1.53
2022-09-02T14:09:52.487Z,1.20
2022-09-02T14:10:55.778Z,1.43
2022-09-02T14:11:59.267Z,1.10
2022-09-02T14:13:05.416Z,1.20
2022-09-02T14:14:09.078Z,1.30
2022-09-02T14:15:14.819Z,1.03
2022-09-02T14:16:33.166Z,1.47
2022-09-02T14:17:35.968Z,1.53
2022-09-02T14:18:37.579Z,1.37
2022-09-02T14:19:39.183Z,1.30
2022-09-02T14:20:59.703Z,1.53
2022-09-02T14:22:02.348Z,1.30
2022-09-02T14:23:04.502Z,1.10
2022-09-02T14:24:12.850Z,1.23
2022-09-02T14:25:15.379Z,1.50
2022-09-02T14:26:29.826Z,1.17
2022-09-02T14:27:31.475Z,1.40
2022-09-02T14:28:34.876Z,1.07
2022-09-02T14:29:44.727Z,1.50
2022-09-02T14:30:57.509Z,1.40
2022-09-02T14:32:14.334Z,1.27
2022-09-02T14:33:24.571Z,1.50
2022-09-02T14:34:33.909Z,1.53
2022-09-02T14:35:35.633Z,1.10
2022-09-02T14:36:38.663Z,1.40
2022-09-02T14:37:49.703Z,1.20
2022-09-02T14:38:55.540Z,1.87
2022-09-02T14:40:00.320Z,1.43
2022-09-02T14:41:12.191Z,1.40
2022-09-02T14:42:13.940Z,1.03
2022-09-02T14:43:16.659Z,1.20
2022-09-02T14:44:22.458Z,1.23
2022-09-02T14:45:29.326Z,1.20
2022-09-02T14:46:46.067Z,1.20
2022-09-02T14:47:48.248Z,0.83
2022-09-02T14:48:59.371Z,0.87
2022-09-02T14:50:02.097Z,0.90
2022-09-02T14:51:06.606Z,1.00
2022-09-02T14:52:29.835Z,1.13
2022-09-02T14:53:32.422Z,1.00
2022-09-02T14:54:47.324Z,1.13
2022-09-02T14:55:57.061Z,1.20
2022-09-02T14:56:58.656Z,1.47
2022-09-02T14:58:04.181Z,1.47
2022-09-02T14:59:06.520Z,1.47
2022-09-02T15:00:14.243Z,1.10
2022-09-02T15:01:18.378Z,1.40
2022-09-02T15:02:24.910Z,1.43
2022-09-02T15:03:29.212Z,1.30
2022-09-02T15:04:37.584Z,1.50
2022-09-02T15:05:39.972Z,1.10
2022-09-02T15:06:43.536Z,1.10
2022-09-02T15:07:47.048Z,1.13
2022-09-02T15:08:51.843Z,1.17
2022-09-02T15:09:54.558Z,1.20
2022-09-02T15:11:00.076Z,1.30
2022-09-02T15:12:03.075Z,1.30
2022-09-02T15:13:05.421Z,1.13
2022-09-02T15:14:08.410Z,1.00
2022-09-02T15:15:11.024Z,1.13
2022-09-02T15:16:13.213Z,1.23